Terminal Aerodrome Forecast
Issued by NWS Greer, SC

Home | Current Version | Previous Version | Text Only | Print | Product List | Glossary On
Versions: 1 2 3 4 5 6 7 8 9 10 11 12 13 14 15 16 17 18 19 20 21 22 23 24 25 26 27 28
725
FTUS42 KGSP 302220 AAA
TAFAVL
TAF AMD
KAVL 302220Z 3022/0118 17008KT P6SM VCSH BKN060
      TEMPO 3022/0101 4SM -SHRA OVC030
     FM010100 14004KT P6SM -SHRA VCTS OVC025CB
     FM010600 16005KT 3SM -SHRA BR OVC008
     FM011000 17004KT 3SM -SHRA BR OVC003
     FM011300 18004KT 4SM -SHRA OVC008
     FM011500 18004KT P6SM -SHRA VCTS BKN045CB=

USA.gov is the U.S. government's official web portal to all federal, state and local government web resources and services.